• Join FlightAware (Why Join?)
  • Login
  • US Flag 
12:58PM EDT


 

Airport Tracker/Info


-or-


 

Live Flight TrackerFlight Track Log ✈ UPS1083 ✈ 12-Jun-2013 ✈ KEWR - KSDF

Flight Track Log - Related Links

Times and Time Zones

All times are in EDT time to prevent confusion due to time zone crossing. See the UPS1083 flight status page for this flight to view local times or setup timezone preferences in your user account.

Time Position Orientation Groundspeed Altitude Reporting Facility
EDT Latitude Longitude Course Direction KTS MPH feet Rate Location/Type
10:44PM 40.7010 -74.1640 206° Southwest 154 177 900  Level FlightAware
10:45PM 40.7100 -74.1530 43° Northeast 168 193 1,400 2,040 Climbing FlightAware
10:45PM 40.7535 -74.1105 37° Northeast 248 285 3,300 2,580 Climbing FlightAware ADS-B
10:46PM 40.7679 -74.1157 345° North 244 281 4,300 4,560 Climbing FlightAware ADS-B
10:46PM 40.7713 -74.1184 329° Northwest 241 277 4,600 4,620 Climbing FlightAware ADS-B
10:46PM 40.7757 -74.1234 319° Northwest 239 275 5,000 4,320 Climbing FlightAware ADS-B
10:46PM 40.7796 -74.1298 309° West 240 276 5,400 3,960 Climbing FlightAware ADS-B
10:46PM 40.7819 -74.1347 302° West 242 278 5,600 3,420 Climbing FlightAware ADS-B
10:46PM 40.7838 -74.1399 296° West 246 283 5,800 3,300 Climbing FlightAware ADS-B
10:46PM 40.7856 -74.1472 288° West 249 287 6,100 3,300 Climbing FlightAware ADS-B
10:46PM 40.7864 -74.1532 280° West 252 290 6,300 3,000 Climbing FlightAware ADS-B
10:46PM 40.7867 -74.1586 274° West 254 292 6,500 3,300 Climbing FlightAware ADS-B
10:46PM 40.7867 -74.1666 270° West 257 296 6,800 3,420 Climbing FlightAware ADS-B
10:47PM 40.7855 -74.1886 266° West 262 302 7,600 2,460 Climbing FlightAware ADS-B
10:47PM 40.7839 -74.2123 265° West 259 298 8,000 960 Climbing FlightAware ADS-B
10:47PM 40.7823 -74.2363 265° West 259 298 8,100 360 Climbing FlightAware ADS-B
10:47PM 40.7807 -74.2608 265° West 261 300 8,200 1,200 Climbing FlightAware ADS-B
10:48PM 40.7762 -74.3210 264° West 261 300 9,200 2,100 Climbing FlightAware ADS-B
10:49PM 40.7640 -74.3782 254° West 261 300 10,800 2,280 Climbing FlightAware ADS-B
10:49PM 40.7488 -74.4230 246° West 319 367 11,600 2,040 Climbing FlightAware ADS-B
10:50PM 40.7120 -74.5330 246° West 369 425 13,700 2,340 Climbing FlightAware
10:50PM 40.7057 -74.5519 246° West 370 426 14,200 3,240 Climbing FlightAware ADS-B
10:51PM 40.6830 -74.6220 247° West 375 432 16,000 2,760 Climbing FlightAware
10:51PM 40.6550 -74.7110 248° West 394 453 17,700 2,580 Climbing FlightAware
10:52PM 40.6240 -74.8040 246° West 402 463 19,700 2,580 Climbing FlightAware
10:53PM 40.5930 -74.9010 247° West 412 474 21,400 2,280 Climbing FlightAware
10:53PM 40.5610 -74.9940 246° West 426 490 22,800 2,400 Climbing FlightAware
10:54PM 40.5260 -75.1020 247° West 426 490 24,800 2,280 Climbing FlightAware
10:55PM 40.4910 -75.2040 246° West 437 503 26,200 1,860 Climbing FlightAware
10:56PM 40.4590 -75.3020 247° West 443 510 27,400 1,560 Climbing FlightAware
10:56PM 40.4230 -75.4070 246° West 457 526 28,400 1,440 Climbing FlightAware
10:57PM 40.3850 -75.5200 246° West 466 536 29,500 1,740 Climbing FlightAware
10:58PM 40.3530 -75.6160 246° West 466 536 30,800 2,760 Climbing FlightAware
10:58PM 40.3120 -75.7330 245° Southwest 438 504 33,400 2,580 Climbing FlightAware
10:59PM 40.2790 -75.8290 246° West 433 498 34,600 1,380 Climbing FlightAware
11:00PM 40.2340 -75.9610 246° West 440 506 35,600 1,080 Climbing FlightAware
11:01PM 40.1970 -76.0700 246° West 445 512 36,400 960 Climbing FlightAware
11:01PM 40.1620 -76.1730 246° West 447 514 37,000 960 Climbing FlightAware
11:02PM 40.1290 -76.2660 245° Southwest 448 516 37,700 720 Climbing FlightAware
11:03PM 40.0840 -76.3710 241° Southwest 452 520 38,000 180 Climbing FlightAware
11:04PM 40.0360 -76.4740 239° Southwest 451 519 38,000  Level FlightAware
11:04PM 39.9930 -76.5670 239° Southwest 451 519 38,000  Level FlightAware
11:05PM 39.9310 -76.7000 239° Southwest 451 519 38,000  Level FlightAware
11:06PM 39.9030 -76.7620 240° Southwest 452 520 38,000  Level FlightAware
11:07PM 39.8410 -76.8940 239° Southwest 451 519 38,000  Level FlightAware
11:07PM 39.7960 -76.9890 238° Southwest 451 519 38,000  Level FlightAware
11:08PM 39.7530 -77.0800 238° Southwest 447 514 38,000  Level FlightAware
11:09PM 39.7090 -77.1740 239° Southwest 439 505 38,000  Level FlightAware
11:09PM 39.6600 -77.2770 238° Southwest 433 498 38,000  Level FlightAware
11:10PM 39.6250 -77.3490 238° Southwest 430 495 38,000  Level FlightAware
11:11PM 39.5620 -77.4820 238° Southwest 429 494 38,000  Level FlightAware
11:12PM 39.5170 -77.5760 238° Southwest 435 501 38,000  Level FlightAware
11:12PM 39.4700 -77.6740 238° Southwest 440 506 38,000  Level FlightAware
11:13PM 39.4280 -77.7600 238° Southwest 442 509 38,000  Level FlightAware
11:14PM 39.3800 -77.8610 238° Southwest 435 501 38,000  Level FlightAware
11:15PM 39.3400 -77.9620 243° Southwest 432 497 38,000  Level FlightAware
11:15PM 39.2910 -78.0870 243° Southwest 431 496 38,000  Level FlightAware
11:16PM 39.2550 -78.1770 243° Southwest 431 496 38,000  Level FlightAware
11:17PM 39.2130 -78.2820 243° Southwest 429 494 38,000  Level FlightAware
11:17PM 39.1840 -78.3550 243° Southwest 428 493 38,000  Level FlightAware
11:18PM 39.1460 -78.4500 243° Southwest 430 495 38,000  Level FlightAware
11:19PM 39.1050 -78.5520 243° Southwest 432 497 38,000  Level FlightAware
11:20PM 39.0670 -78.6460 243° Southwest 436 502 38,000  Level FlightAware
11:20PM 39.0270 -78.7440 242° Southwest 440 506 38,000 60 Level FlightAware
11:21PM 38.9910 -78.8320 242° Southwest 442 509 38,100 60 Climbing FlightAware
11:22PM 38.9550 -78.9200 242° Southwest 445 512 38,100 -120 Level FlightAware
11:22PM 38.9070 -79.0360 242° Southwest 448 516 38,000 -120 Descending FlightAware
11:23PM 38.8640 -79.1370 241° Southwest 450 518 38,000  Level FlightAware
11:24PM 38.8230 -79.2280 240° Southwest 448 516 38,000  Level FlightAware
11:24PM 38.7770 -79.3290 240° Southwest 447 514 38,000  Level FlightAware
11:25PM 38.7370 -79.4160 240° Southwest 445 512 38,000  Level FlightAware
11:26PM 38.6920 -79.5170 240° Southwest 440 506 38,000  Level FlightAware
11:27PM 38.6590 -79.6120 246° West 435 501 38,000  Level FlightAware
11:27PM 38.6270 -79.7090 247° West 435 501 38,000  Level FlightAware
11:28PM 38.6030 -79.8060 252° West 426 490 38,000  Level FlightAware
11:29PM 38.5770 -79.9690 259° West 430 495 38,000  Level FlightAware
11:30PM 38.5590 -80.0860 259° West 443 510 38,100  Climbing FlightAware
11:31PM 38.5320 -80.2460 258° West 452 520 38,000 -60 Descending FlightAware
11:32PM 38.5110 -80.3730 258° West 446 513 38,000  Level FlightAware
11:32PM 38.4920 -80.4820 257° West 439 505 38,000  Level FlightAware
11:33PM 38.4740 -80.5950 259° West 435 501 38,000  Level FlightAware
11:34PM 38.4570 -80.6950 258° West 437 503 38,000  Level FlightAware
11:34PM 38.4400 -80.8000 258° West 441 507 38,000  Level FlightAware
11:35PM 38.4200 -80.9130 257° West 443 510 38,000  Level FlightAware
11:36PM 38.4040 -81.0110 258° West 446 513 38,000  Level FlightAware
11:36PM 38.3860 -81.1120 257° West 447 514 38,000 60 Level FlightAware
11:37PM 38.3670 -81.2250 258° West 445 512 38,100  Climbing FlightAware
11:38PM 38.3470 -81.3400 258° West 446 513 38,000 -120 Descending FlightAware
11:39PM 38.3290 -81.4400 257° West 447 514 38,000  Level FlightAware
11:39PM 38.3196 -81.4950 258° West 449 517 38,000  Level FlightAware ADS-B
11:40PM 38.2905 -81.6596 257° West 449 517 38,000 -360 Level FlightAware ADS-B
11:41PM 38.2710 -81.7700 257° West 456 525 37,400 -900 Descending FlightAware
11:41PM 38.2520 -81.8760 257° West 452 520 36,800 -960 Descending FlightAware
11:42PM 38.2320 -81.9880 257° West 448 516 36,100 -1,020 Descending FlightAware
11:43PM 38.2140 -82.0900 257° West 446 513 35,400 -1,080 Descending FlightAware
11:43PM 38.1940 -82.1980 257° West 441 507 34,700 -960 Descending FlightAware
11:44PM 38.1730 -82.3130 257° West 440 506 34,000 -960 Descending FlightAware
11:45PM 38.1520 -82.4290 257° West 444 511 33,300 -1,020 Descending FlightAware
11:46PM 38.1270 -82.5580 256° West 450 518 32,400 -900 Descending FlightAware
11:46PM 38.1080 -82.6600 257° West 451 519 32,000 -300 Descending FlightAware
11:47PM 38.0880 -82.7710 257° West 456 525 32,000  Level FlightAware
11:48PM 38.0680 -82.8780 257° West 456 525 32,000  Level FlightAware
11:49PM 38.0470 -82.9820 256° West 456 525 32,000  Level FlightAware
11:49PM 38.0287 -83.0795 257° West 456 525 32,000  Level FlightAware ADS-B
11:50PM 38.0150 -83.1480 256° West 456 525 32,000  Level FlightAware
11:51PM 37.9930 -83.2560 256° West 456 525 32,000  Level FlightAware
11:51PM 37.9780 -83.3360 257° West 456 525 32,000  Level FlightAware
11:52PM 37.9580 -83.4370 256° West 456 525 32,000 -1,800 Level FlightAware
11:54PM 37.8873 -83.8117 257° West 471 542 27,600 -2,160 Descending FlightAware ADS-B
11:58PM 37.7470 -84.5050 256° West 413 475 18,500 -2,100 Descending FlightAware
11:59PM 37.7270 -84.6030 256° West 403 464 16,800 -1,560 Descending FlightAware
12:00AM 37.7130 -84.6740 256° West 402 463 16,400 -360 Descending FlightAware
12:00AM 37.6970 -84.7470 255° West 402 463 16,400  Level FlightAware
12:01AM 37.6770 -84.8420 255° West 402 463 16,400  Level FlightAware
12:02AM 37.6620 -84.9110 255° West 402 463 16,400  Level FlightAware
12:03AM 37.6420 -85.0060 255° West 402 463 16,400  Level FlightAware
12:03AM 37.6270 -85.0770 255° West 402 463 16,400 -2,460 Level FlightAware
12:05AM 37.8830 -85.2680 330° Northwest 261 300 10,100 -2,460 Descending FlightAware
12:06AM 37.9100 -85.3060 312° West 260 299 10,100  Level FlightAware
12:07AM 37.9500 -85.3620 312° West 260 299 10,100 -1,500 Level FlightAware
12:07AM 37.9780 -85.4010 312° West 249 287 8,100 -3,240 Descending FlightAware
12:08AM 37.9970 -85.4280 312° West 251 289 7,500 -1,260 Descending FlightAware
12:08AM 38.0250 -85.4660 313° West 241 277 6,800 -1,200 Descending FlightAware
12:08AM 38.0370 -85.4820 314° West 237 273 6,500 -1,380 Descending FlightAware
12:09AM 38.0560 -85.5100 311° West 236 272 5,900 -1,320 Descending FlightAware
12:09AM 38.0720 -85.5330 311° West 235 270 5,400 -900 Descending FlightAware
12:10AM 38.0970 -85.5670 313° West 240 276 5,100 -300 Descending FlightAware
12:10AM 38.1260 -85.5890 329° Northwest 257 296 5,100  Level FlightAware
12:11AM 38.1710 -85.6100 340° North 255 293 5,100  Level FlightAware
12:11AM 38.1860 -85.6170 340° North 255 293 5,100  Level FlightAware
12:12AM 38.2180 -85.6310 341° North 261 300 5,100 -600 Level FlightAware
12:12AM 38.2460 -85.6400 346° North 261 300 4,600 -1,080 Descending FlightAware
12:13AM 38.2840 -85.6530 345° North 261 300 4,100 -660 Descending FlightAware
12:13AM 38.3020 -85.6600 343° North 261 300 4,100  Level FlightAware
12:13AM 38.3340 -85.6710 345° North 246 283 4,100  Level FlightAware
12:14AM 38.3430 -85.6810 319° Northwest 206 237 4,100  Level FlightAware
12:14AM 38.3470 -85.6950 290° West 170 196 4,100  Level FlightAware
12:14AM 38.3430 -85.7210 259° West 139 160 4,100  Level FlightAware
12:14AM 38.3400 -85.7300 247° West 140 161 4,100 -300 Level FlightAware
12:15AM 38.3340 -85.7350 213° Southwest 145 167 4,000 -1,260 Descending FlightAware
12:15AM 38.3130 -85.7420 195° South 148 170 3,200 -1,380 Descending FlightAware
12:16AM 38.2930 -85.7510 199° South 149 171 2,600 -720 Descending FlightAware
12:16AM 38.2770 -85.7580 199° South 153 176 2,600 -660 Level FlightAware
12:17AM 38.2560 -85.7540 171° South 146 168 2,000 -1,020 Descending FlightAware
12:17AM 38.2410 -85.7490 165° South 145 167 1,700 -720 Descending FlightAware
12:18AM 38.2220 -85.7430 166° South 149 171 1,400 -780 Descending FlightAware
12:18AM 38.2030 -85.7370 166° South 145 167 1,000 -780 Descending FlightAware
12:18AM 38.1880 -85.7320 165° South 150 173 700 -600 Descending FlightAware
12:19AM 38.1700 -85.7260 165° South 21 24 -1,020 Descending FlightAware
12:20AM 38.1720 -85.7280 322° Northwest 21 24  Level FlightAware
12:22AM 38.1770 -85.7380 302° West 28 32  Level FlightAware
12:23AM 38.1780 -85.7400 302° West 30 35  Level FlightAware
12:24AM 38.1740 -85.7420 165° South 22 25  Level FlightAware